La Grace — OL5614 — position and weather

sailwx.info

Track history (hours):
 
Tides and Currents Weather Stations Pressure Air Temp Water Temp Dewpoint Dewpoint Depression Visibility Wind Speed Wind Dir Waves Ship Positions

La Grace

Last reported at 2017-Nov-11 22:27 UTC. Time now 2017-Dec-11 09:42 UTC.
Position N 39°22' E 002°47'.
Warning: this ship's position is 29 days out of date.

Length 23 m.

Type: Sailing vessel. MMSI: 270467000.

Date/timePositionNaut miles runAvg speedWind from/ knotsBaromVisibWave heightAir tempDewpointWater temp
2017-Nov-11 22:27N 39°22' E 002°47'2 4.1
2017-Nov-11 22:00N 39°23' E 002°45'2 5.0
2017-Nov-11 21:30N 39°25' E 002°43'4 6.9
2017-Nov-11 20:59N 39°28' E 002°43'3 6.7
2017-Nov-11 20:30N 39°32' E 002°43'0 0.4
2017-Nov-11 20:00N 39°32' E 002°43'0 0.0
2017-Nov-11 19:30N 39°32' E 002°43'0 0.0
2017-Nov-11 19:00N 39°32' E 002°43'0 0.0
2017-Nov-11 18:30N 39°32' E 002°43'0 0.0
2017-Nov-11 17:59N 39°32' E 002°43'0 0.0
2017-Nov-11 17:29N 39°32' E 002°43'0 0.0
2017-Nov-11 16:58N 39°32' E 002°43'0 0.0
2017-Nov-11 16:23N 39°32' E 002°43'0 0.0
2017-Nov-11 16:00N 39°32' E 002°43'0 0.0
2017-Nov-11 15:25N 39°32' E 002°43'0 0.0
2017-Nov-11 14:56N 39°32' E 002°43'0 0.0
2017-Nov-11 14:28N 39°32' E 002°43'0 0.0
2017-Nov-11 13:58N 39°32' E 002°43'0 0.0
2017-Nov-11 13:25N 39°32' E 002°43'0 0.0
2017-Nov-11 13:00N 39°32' E 002°43'0 0.0
2017-Nov-11 12:30N 39°32' E 002°43'0 0.0
2017-Nov-11 12:00N 39°32' E 002°43'0 0.0
2017-Nov-11 11:30N 39°32' E 002°43'0 0.0
2017-Nov-11 11:00N 39°32' E 002°43'0 0.0
2017-Nov-11 10:30N 39°32' E 002°43'0 0.0
2017-Nov-11 09:58N 39°32' E 002°43'0 0.0
2017-Nov-11 09:31N 39°32' E 002°43'0 0.0
2017-Nov-11 09:00N 39°32' E 002°43'0 0.0
2017-Nov-11 08:30N 39°32' E 002°43'0 0.0
2017-Nov-11 07:58N 39°32' E 002°43'0 0.0
2017-Nov-11 07:28N 39°32' E 002°43'0 0.0
2017-Nov-11 07:01N 39°32' E 002°43'0 0.0
2017-Nov-11 06:28N 39°32' E 002°43'0 0.0
2017-Nov-11 05:59N 39°32' E 002°43'0 0.0
2017-Nov-11 05:30N 39°32' E 002°43'0 0.0
2017-Nov-11 04:57N 39°32' E 002°43'0 0.0
2017-Nov-11 04:30N 39°32' E 002°43'0 0.0
2017-Nov-11 03:59N 39°32' E 002°43'0 0.0
2017-Nov-11 03:30N 39°32' E 002°43'0 0.0
2017-Nov-11 02:59N 39°32' E 002°43'0 0.0
2017-Nov-11 02:30N 39°32' E 002°43'0 0.0
2017-Nov-11 02:00N 39°32' E 002°43'0 0.0
2017-Nov-11 01:30N 39°32' E 002°43'0 0.1
2017-Nov-11 01:00N 39°32' E 002°43'0 0.0
2017-Nov-11 00:29N 39°32' E 002°43'0 0.0
2017-Nov-10 23:58N 39°32' E 002°43'0 0.0
2017-Nov-10 23:30N 39°32' E 002°43'0 0.0
2017-Nov-10 23:00N 39°32' E 002°43'0 0.0
2017-Nov-10 22:30N 39°32' E 002°43'0 0.0
2017-Nov-10 22:00N 39°32' E 002°43'0 0.0
2017-Nov-10 21:30N 39°32' E 002°43'0 0.0
2017-Nov-10 20:58N 39°32' E 002°43'0 0.0
2017-Nov-10 20:29N 39°32' E 002°43'0 0.0
2017-Nov-10 19:52N 39°32' E 002°43'0 0.0
2017-Nov-10 19:28N 39°32' E 002°43'0 0.0
2017-Nov-10 18:59N 39°32' E 002°43'0 0.0
2017-Nov-10 18:30N 39°32' E 002°43'0 0.0
2017-Nov-10 18:00N 39°32' E 002°43'0 0.0
2017-Nov-10 17:29N 39°32' E 002°43'0 0.0
2017-Nov-10 17:00N 39°32' E 002°43'0 0.0
2017-Nov-10 16:29N 39°32' E 002°43'0 0.0
2017-Nov-10 16:00N 39°32' E 002°43'0 0.0
2017-Nov-10 15:30N 39°32' E 002°43'0 0.0
2017-Nov-10 15:00N 39°32' E 002°43'0 0.0
2017-Nov-10 14:30N 39°32' E 002°43'0 0.0
2017-Nov-10 13:56N 39°32' E 002°43'0 0.0
2017-Nov-10 13:29N 39°32' E 002°43'1 1.3
2017-Nov-10 13:00N 39°31' E 002°42'2 4.7
2017-Nov-10 12:30N 39°30' E 002°39'3 6.1
2017-Nov-10 12:01N 39°29' E 002°36'3 6.1
2017-Nov-10 11:30N 39°28' E 002°32'  
2017-Nov-05 13:18N 39°21' E 002°47'2 6.2
2017-Nov-05 13:00N 39°22' E 002°45'2 3.5
2017-Nov-05 12:30N 39°23' E 002°43'1 2.8
2017-Nov-05 11:59N 39°25' E 002°42'1 2.8
2017-Nov-05 11:30N 39°26' E 002°42'1 2.7
2017-Nov-05 10:59N 39°27' E 002°42'2 3.7
2017-Nov-05 10:30N 39°29' E 002°42'2 4.3
2017-Nov-05 09:59N 39°31' E 002°43'0 1.0
2017-Nov-05 09:30N 39°32' E 002°43'1 2.0
2017-Nov-05 09:01N 39°32' E 002°42'3 6.5
2017-Nov-05 08:30N 39°31' E 002°37'3 5.6
2017-Nov-05 08:00N 39°31' E 002°34'1 0.3
2017-Nov-05 04:27N 39°31' E 002°33'0 0.0
2017-Nov-05 04:00N 39°31' E 002°33'0 0.0
2017-Nov-05 03:00N 39°31' E 002°33'0 0.0
2017-Nov-05 02:26N 39°31' E 002°33'0 0.0
2017-Nov-05 01:59N 39°31' E 002°33'0 0.0
2017-Nov-05 01:29N 39°31' E 002°33'0 0.0
2017-Nov-05 00:55N 39°31' E 002°33'0 0.0
2017-Nov-05 00:25N 39°31' E 002°33'0 0.0
2017-Nov-04 23:59N 39°31' E 002°33'0 0.0
2017-Nov-04 23:26N 39°31' E 002°33'0 0.0
2017-Nov-04 22:53N 39°31' E 002°33'0 0.0
2017-Nov-04 22:27N 39°31' E 002°33'0 0.0
2017-Nov-04 21:59N 39°31' E 002°33'0 0.0
2017-Nov-04 21:29N 39°31' E 002°33'0 0.0
2017-Nov-04 20:59N 39°31' E 002°33'0 0.0
2017-Nov-04 20:29N 39°31' E 002°33'0 0.0
2017-Nov-04 19:41N 39°31' E 002°33'0 0.0
2017-Nov-04 19:18N 39°31' E 002°33'0 0.0
2017-Nov-04 18:57N 39°31' E 002°33'0 0.0
2017-Nov-04 18:19N 39°31' E 002°33'0 0.0
2017-Nov-04 18:00N 39°31' E 002°33'0 0.0
2017-Nov-04 17:27N 39°31' E 002°33'0 0.0
2017-Nov-04 16:48N 39°31' E 002°33'0 0.0
2017-Nov-04 16:30N 39°31' E 002°33'0 0.0
2017-Nov-04 15:54N 39°31' E 002°33'0 0.0
2017-Nov-04 15:27N 39°31' E 002°33'0 0.8
2017-Nov-04 15:01N 39°31' E 002°33'3 5.4
2017-Nov-04 14:30N 39°31' E 002°37'3 5.3
2017-Nov-04 14:00N 39°31' E 002°40'2 4.4
2017-Nov-04 13:30N 39°32' E 002°43'0 0.0
2017-Nov-04 13:00N 39°32' E 002°43'0 0.0
2017-Nov-04 12:30N 39°32' E 002°43'0 0.0
2017-Nov-04 12:00N 39°32' E 002°43'0 0.0
2017-Nov-04 11:30N 39°32' E 002°43'0 0.0
2017-Nov-04 11:00N 39°32' E 002°43'0 0.1
2017-Nov-04 10:30N 39°32' E 002°43'3 5.5
2017-Nov-04 10:01N 39°32' E 002°39'2 4.3
2017-Nov-04 09:29N 39°33' E 002°37'0 0.0
2017-Nov-04 08:59N 39°33' E 002°37'0 0.0
2017-Nov-04 08:29N 39°33' E 002°37'0 0.0
2017-Nov-04 08:00N 39°33' E 002°37'0 0.0
2017-Nov-04 07:28N 39°33' E 002°37'0 0.0
2017-Nov-04 06:59N 39°33' E 002°37'0 0.0
2017-Nov-04 06:29N 39°33' E 002°37'0 0.0
2017-Nov-04 05:55N 39°33' E 002°37'0 0.0
2017-Nov-04 05:25N 39°33' E 002°37'0 0.0
2017-Nov-04 04:58N 39°33' E 002°37'0 0.0
2017-Nov-04 04:29N 39°33' E 002°37'0 0.0
2017-Nov-04 03:59N 39°33' E 002°37'0 0.0
2017-Nov-04 03:30N 39°33' E 002°37'0 0.0
2017-Nov-04 03:01N 39°33' E 002°37'0 0.0
2017-Nov-04 02:31N 39°33' E 002°37'0 0.0
2017-Nov-04 02:01N 39°33' E 002°37'0 0.0
2017-Nov-04 01:31N 39°33' E 002°37'0 0.0
2017-Nov-04 00:58N 39°33' E 002°37'0 0.0
2017-Nov-04 00:22N 39°33' E 002°37'0 0.0
2017-Nov-03 23:58N 39°33' E 002°37'0 0.0
2017-Nov-03 23:28N 39°33' E 002°37'0 0.0
2017-Nov-03 23:00N 39°33' E 002°37'0 0.0
2017-Nov-03 22:30N 39°33' E 002°37'0 0.0
2017-Nov-03 22:00N 39°33' E 002°37'0 0.0
2017-Nov-03 21:27N 39°33' E 002°37'0 0.0
2017-Nov-03 21:00N 39°33' E 002°37'0 0.0
2017-Nov-03 20:28N 39°33' E 002°37'0 0.0
2017-Nov-03 19:58N 39°33' E 002°37'0 0.0
2017-Nov-03 19:28N 39°33' E 002°37'0 0.0
2017-Nov-03 18:58N 39°33' E 002°37'0 0.0
2017-Nov-03 18:28N 39°33' E 002°37'0 0.0
2017-Nov-03 17:55N 39°33' E 002°37'0 0.0
2017-Nov-03 17:29N 39°33' E 002°37'0 0.0
2017-Nov-03 16:59N 39°33' E 002°37'0 0.0
2017-Nov-03 16:29N 39°33' E 002°37'0 0.0
2017-Nov-03 15:58N 39°33' E 002°37'0 0.0
2017-Nov-03 15:28N 39°33' E 002°37'0 0.0
2017-Nov-03 14:59N 39°33' E 002°37'0 0.0
2017-Nov-03 14:29N 39°33' E 002°37'0 0.0
2017-Nov-03 13:59N 39°33' E 002°37'0 0.0
2017-Nov-03 13:29N 39°33' E 002°37'0 0.0
2017-Nov-03 12:59N 39°33' E 002°37'0 0.0
2017-Nov-03 12:29N 39°33' E 002°37'0 0.0
2017-Nov-03 11:59N 39°33' E 002°37'0 0.0
2017-Nov-03 11:29N 39°33' E 002°37'0 0.0
2017-Nov-03 10:59N 39°33' E 002°37'0 0.0
2017-Nov-03 10:29N 39°33' E 002°37'0 0.0
2017-Nov-03 09:56N 39°33' E 002°37'0 0.0
2017-Nov-03 09:29N 39°33' E 002°37'0 0.0
2017-Nov-03 08:56N 39°33' E 002°37'0 0.0
2017-Nov-03 08:29N 39°33' E 002°37'0 0.0
2017-Nov-03 07:59N 39°33' E 002°37'0 0.0
2017-Nov-03 07:23N 39°33' E 002°37'0 0.0
2017-Nov-03 06:59N 39°33' E 002°37'0 0.0
2017-Nov-03 06:29N 39°33' E 002°37'0 0.0
2017-Nov-03 05:59N 39°33' E 002°37'0 0.0
2017-Nov-03 05:29N 39°33' E 002°37'0 0.0
2017-Nov-03 04:59N 39°33' E 002°37'0 0.0
2017-Nov-03 04:29N 39°33' E 002°37'0 0.0
2017-Nov-03 03:59N 39°33' E 002°37'0 0.0
2017-Nov-03 03:29N 39°33' E 002°37'0 0.0
2017-Nov-03 02:59N 39°33' E 002°37'0 0.0
2017-Nov-03 02:29N 39°33' E 002°37'0 0.0
2017-Nov-03 01:58N 39°33' E 002°37'0 0.0
2017-Nov-03 01:28N 39°33' E 002°37'0 0.0
2017-Nov-03 00:58N 39°33' E 002°37'0 0.0
2017-Nov-03 00:28N 39°33' E 002°37'0 0.0
2017-Nov-02 23:58N 39°33' E 002°37'0 0.5
2017-Nov-02 23:30N 39°33' E 002°37'2 4.9
2017-Nov-02 23:00N 39°30' E 002°38'3 6.2
2017-Nov-02 22:29N 39°27' E 002°38'2 3.1
2017-Nov-02 22:00N 39°26' E 002°40'1 2.5
2017-Nov-02 21:29N 39°25' E 002°41'1 2.1
2017-Nov-02 20:59N 39°25' E 002°42'  
Track history (hours):
 
Tides and Currents Weather Stations Pressure Air Temp Water Temp Dewpoint Dewpoint Depression Visibility Wind Speed Wind Dir Waves Ship Positions

La Grace

Last reported at 2017-Nov-11 22:27 UTC. Time now 2017-Dec-11 09:42 UTC.
Position N 39°22' E 002°47'.
Warning: this ship's position is 29 days out of date.

Length 23 m.

Type: Sailing vessel. MMSI: 270467000.

Date/timePositionNaut miles runAvg speedWind from/ knotsBaromVisibWave heightAir tempDewpointWater temp
2017-Nov-11 22:27N 39°22' E 002°47'2 4.1
2017-Nov-11 22:00N 39°23' E 002°45'2 5.0
2017-Nov-11 21:30N 39°25' E 002°43'4 6.9
2017-Nov-11 20:59N 39°28' E 002°43'3 6.7
2017-Nov-11 20:30N 39°32' E 002°43'0 0.4
2017-Nov-11 20:00N 39°32' E 002°43'0 0.0
2017-Nov-11 19:30N 39°32' E 002°43'0 0.0
2017-Nov-11 19:00N 39°32' E 002°43'0 0.0
2017-Nov-11 18:30N 39°32' E 002°43'0 0.0
2017-Nov-11 17:59N 39°32' E 002°43'0 0.0
2017-Nov-11 17:29N 39°32' E 002°43'0 0.0
2017-Nov-11 16:58N 39°32' E 002°43'0 0.0
2017-Nov-11 16:23N 39°32' E 002°43'0 0.0
2017-Nov-11 16:00N 39°32' E 002°43'0 0.0
2017-Nov-11 15:25N 39°32' E 002°43'0 0.0
2017-Nov-11 14:56N 39°32' E 002°43'0 0.0
2017-Nov-11 14:28N 39°32' E 002°43'0 0.0
2017-Nov-11 13:58N 39°32' E 002°43'0 0.0
2017-Nov-11 13:25N 39°32' E 002°43'0 0.0
2017-Nov-11 13:00N 39°32' E 002°43'0 0.0
2017-Nov-11 12:30N 39°32' E 002°43'0 0.0
2017-Nov-11 12:00N 39°32' E 002°43'0 0.0
2017-Nov-11 11:30N 39°32' E 002°43'0 0.0
2017-Nov-11 11:00N 39°32' E 002°43'0 0.0
2017-Nov-11 10:30N 39°32' E 002°43'0 0.0
2017-Nov-11 09:58N 39°32' E 002°43'0 0.0
2017-Nov-11 09:31N 39°32' E 002°43'0 0.0
2017-Nov-11 09:00N 39°32' E 002°43'0 0.0
2017-Nov-11 08:30N 39°32' E 002°43'0 0.0
2017-Nov-11 07:58N 39°32' E 002°43'0 0.0
2017-Nov-11 07:28N 39°32' E 002°43'0 0.0
2017-Nov-11 07:01N 39°32' E 002°43'0 0.0
2017-Nov-11 06:28N 39°32' E 002°43'0 0.0
2017-Nov-11 05:59N 39°32' E 002°43'0 0.0
2017-Nov-11 05:30N 39°32' E 002°43'0 0.0
2017-Nov-11 04:57N 39°32' E 002°43'0 0.0
2017-Nov-11 04:30N 39°32' E 002°43'0 0.0
2017-Nov-11 03:59N 39°32' E 002°43'0 0.0
2017-Nov-11 03:30N 39°32' E 002°43'0 0.0
2017-Nov-11 02:59N 39°32' E 002°43'0 0.0
2017-Nov-11 02:30N 39°32' E 002°43'0 0.0
2017-Nov-11 02:00N 39°32' E 002°43'0 0.0
2017-Nov-11 01:30N 39°32' E 002°43'0 0.1
2017-Nov-11 01:00N 39°32' E 002°43'0 0.0
2017-Nov-11 00:29N 39°32' E 002°43'0 0.0
2017-Nov-10 23:58N 39°32' E 002°43'0 0.0
2017-Nov-10 23:30N 39°32' E 002°43'0 0.0
2017-Nov-10 23:00N 39°32' E 002°43'0 0.0
2017-Nov-10 22:30N 39°32' E 002°43'0 0.0
2017-Nov-10 22:00N 39°32' E 002°43'0 0.0
2017-Nov-10 21:30N 39°32' E 002°43'0 0.0
2017-Nov-10 20:58N 39°32' E 002°43'0 0.0
2017-Nov-10 20:29N 39°32' E 002°43'0 0.0
2017-Nov-10 19:52N 39°32' E 002°43'0 0.0
2017-Nov-10 19:28N 39°32' E 002°43'0 0.0
2017-Nov-10 18:59N 39°32' E 002°43'0 0.0
2017-Nov-10 18:30N 39°32' E 002°43'0 0.0
2017-Nov-10 18:00N 39°32' E 002°43'0 0.0
2017-Nov-10 17:29N 39°32' E 002°43'0 0.0
2017-Nov-10 17:00N 39°32' E 002°43'0 0.0
2017-Nov-10 16:29N 39°32' E 002°43'0 0.0
2017-Nov-10 16:00N 39°32' E 002°43'0 0.0
2017-Nov-10 15:30N 39°32' E 002°43'0 0.0
2017-Nov-10 15:00N 39°32' E 002°43'0 0.0
2017-Nov-10 14:30N 39°32' E 002°43'0 0.0
2017-Nov-10 13:56N 39°32' E 002°43'0 0.0
2017-Nov-10 13:29N 39°32' E 002°43'1 1.3
2017-Nov-10 13:00N 39°31' E 002°42'2 4.7
2017-Nov-10 12:30N 39°30' E 002°39'3 6.1
2017-Nov-10 12:01N 39°29' E 002°36'3 6.1
2017-Nov-10 11:30N 39°28' E 002°32'  
2017-Nov-05 13:18N 39°21' E 002°47'2 6.2
2017-Nov-05 13:00N 39°22' E 002°45'2 3.5
2017-Nov-05 12:30N 39°23' E 002°43'1 2.8
2017-Nov-05 11:59N 39°25' E 002°42'1 2.8
2017-Nov-05 11:30N 39°26' E 002°42'1 2.7
2017-Nov-05 10:59N 39°27' E 002°42'2 3.7
2017-Nov-05 10:30N 39°29' E 002°42'2 4.3
2017-Nov-05 09:59N 39°31' E 002°43'0 1.0
2017-Nov-05 09:30N 39°32' E 002°43'1 2.0
2017-Nov-05 09:01N 39°32' E 002°42'3 6.5
2017-Nov-05 08:30N 39°31' E 002°37'3 5.6
2017-Nov-05 08:00N 39°31' E 002°34'1 0.3
2017-Nov-05 04:27N 39°31' E 002°33'0 0.0
2017-Nov-05 04:00N 39°31' E 002°33'0 0.0
2017-Nov-05 03:00N 39°31' E 002°33'0 0.0
2017-Nov-05 02:26N 39°31' E 002°33'0 0.0
2017-Nov-05 01:59N 39°31' E 002°33'0 0.0
2017-Nov-05 01:29N 39°31' E 002°33'0 0.0
2017-Nov-05 00:55N 39°31' E 002°33'0 0.0
2017-Nov-05 00:25N 39°31' E 002°33'0 0.0
2017-Nov-04 23:59N 39°31' E 002°33'0 0.0
2017-Nov-04 23:26N 39°31' E 002°33'0 0.0
2017-Nov-04 22:53N 39°31' E 002°33'0 0.0
2017-Nov-04 22:27N 39°31' E 002°33'0 0.0
2017-Nov-04 21:59N 39°31' E 002°33'0 0.0
2017-Nov-04 21:29N 39°31' E 002°33'0 0.0
2017-Nov-04 20:59N 39°31' E 002°33'0 0.0
2017-Nov-04 20:29N 39°31' E 002°33'0 0.0
2017-Nov-04 19:41N 39°31' E 002°33'0 0.0
2017-Nov-04 19:18N 39°31' E 002°33'0 0.0
2017-Nov-04 18:57N 39°31' E 002°33'0 0.0
2017-Nov-04 18:19N 39°31' E 002°33'0 0.0
2017-Nov-04 18:00N 39°31' E 002°33'0 0.0
2017-Nov-04 17:27N 39°31' E 002°33'0 0.0
2017-Nov-04 16:48N 39°31' E 002°33'0 0.0
2017-Nov-04 16:30N 39°31' E 002°33'0 0.0
2017-Nov-04 15:54N 39°31' E 002°33'0 0.0
2017-Nov-04 15:27N 39°31' E 002°33'0 0.8
2017-Nov-04 15:01N 39°31' E 002°33'3 5.4
2017-Nov-04 14:30N 39°31' E 002°37'3 5.3
2017-Nov-04 14:00N 39°31' E 002°40'2 4.4
2017-Nov-04 13:30N 39°32' E 002°43'0 0.0
2017-Nov-04 13:00N 39°32' E 002°43'0 0.0
2017-Nov-04 12:30N 39°32' E 002°43'0 0.0
2017-Nov-04 12:00N 39°32' E 002°43'0 0.0
2017-Nov-04 11:30N 39°32' E 002°43'0 0.0
2017-Nov-04 11:00N 39°32' E 002°43'0 0.1
2017-Nov-04 10:30N 39°32' E 002°43'3 5.5
2017-Nov-04 10:01N 39°32' E 002°39'2 4.3
2017-Nov-04 09:29N 39°33' E 002°37'0 0.0
2017-Nov-04 08:59N 39°33' E 002°37'0 0.0
2017-Nov-04 08:29N 39°33' E 002°37'0 0.0
2017-Nov-04 08:00N 39°33' E 002°37'0 0.0
2017-Nov-04 07:28N 39°33' E 002°37'0 0.0
2017-Nov-04 06:59N 39°33' E 002°37'0 0.0
2017-Nov-04 06:29N 39°33' E 002°37'0 0.0
2017-Nov-04 05:55N 39°33' E 002°37'0 0.0
2017-Nov-04 05:25N 39°33' E 002°37'0 0.0
2017-Nov-04 04:58N 39°33' E 002°37'0 0.0
2017-Nov-04 04:29N 39°33' E 002°37'0 0.0
2017-Nov-04 03:59N 39°33' E 002°37'0 0.0
2017-Nov-04 03:30N 39°33' E 002°37'0 0.0
2017-Nov-04 03:01N 39°33' E 002°37'0 0.0
2017-Nov-04 02:31N 39°33' E 002°37'0 0.0
2017-Nov-04 02:01N 39°33' E 002°37'0 0.0
2017-Nov-04 01:31N 39°33' E 002°37'0 0.0
2017-Nov-04 00:58N 39°33' E 002°37'0 0.0
2017-Nov-04 00:22N 39°33' E 002°37'0 0.0
2017-Nov-03 23:58N 39°33' E 002°37'0 0.0
2017-Nov-03 23:28N 39°33' E 002°37'0 0.0
2017-Nov-03 23:00N 39°33' E 002°37'0 0.0
2017-Nov-03 22:30N 39°33' E 002°37'0 0.0
2017-Nov-03 22:00N 39°33' E 002°37'0 0.0
2017-Nov-03 21:27N 39°33' E 002°37'0 0.0
2017-Nov-03 21:00N 39°33' E 002°37'0 0.0
2017-Nov-03 20:28N 39°33' E 002°37'0 0.0
2017-Nov-03 19:58N 39°33' E 002°37'0 0.0
2017-Nov-03 19:28N 39°33' E 002°37'0 0.0
2017-Nov-03 18:58N 39°33' E 002°37'0 0.0
2017-Nov-03 18:28N 39°33' E 002°37'0 0.0
2017-Nov-03 17:55N 39°33' E 002°37'0 0.0
2017-Nov-03 17:29N 39°33' E 002°37'0 0.0
2017-Nov-03 16:59N 39°33' E 002°37'0 0.0
2017-Nov-03 16:29N 39°33' E 002°37'0 0.0
2017-Nov-03 15:58N 39°33' E 002°37'0 0.0
2017-Nov-03 15:28N 39°33' E 002°37'0 0.0
2017-Nov-03 14:59N 39°33' E 002°37'0 0.0
2017-Nov-03 14:29N 39°33' E 002°37'0 0.0
2017-Nov-03 13:59N 39°33' E 002°37'0 0.0
2017-Nov-03 13:29N 39°33' E 002°37'0 0.0
2017-Nov-03 12:59N 39°33' E 002°37'0 0.0
2017-Nov-03 12:29N 39°33' E 002°37'0 0.0
2017-Nov-03 11:59N 39°33' E 002°37'0 0.0
2017-Nov-03 11:29N 39°33' E 002°37'0 0.0
2017-Nov-03 10:59N 39°33' E 002°37'0 0.0
2017-Nov-03 10:29N 39°33' E 002°37'0 0.0
2017-Nov-03 09:56N 39°33' E 002°37'0 0.0
2017-Nov-03 09:29N 39°33' E 002°37'0 0.0
2017-Nov-03 08:56N 39°33' E 002°37'0 0.0
2017-Nov-03 08:29N 39°33' E 002°37'0 0.0
2017-Nov-03 07:59N 39°33' E 002°37'0 0.0
2017-Nov-03 07:23N 39°33' E 002°37'0 0.0
2017-Nov-03 06:59N 39°33' E 002°37'0 0.0
2017-Nov-03 06:29N 39°33' E 002°37'0 0.0
2017-Nov-03 05:59N 39°33' E 002°37'0 0.0
2017-Nov-03 05:29N 39°33' E 002°37'0 0.0
2017-Nov-03 04:59N 39°33' E 002°37'0 0.0
2017-Nov-03 04:29N 39°33' E 002°37'0 0.0
2017-Nov-03 03:59N 39°33' E 002°37'0 0.0
2017-Nov-03 03:29N 39°33' E 002°37'0 0.0
2017-Nov-03 02:59N 39°33' E 002°37'0 0.0
2017-Nov-03 02:29N 39°33' E 002°37'0 0.0
2017-Nov-03 01:58N 39°33' E 002°37'0 0.0
2017-Nov-03 01:28N 39°33' E 002°37'0 0.0
2017-Nov-03 00:58N 39°33' E 002°37'0 0.0
2017-Nov-03 00:28N 39°33' E 002°37'0 0.0
2017-Nov-02 23:58N 39°33' E 002°37'0 0.5
2017-Nov-02 23:30N 39°33' E 002°37'2 4.9
2017-Nov-02 23:00N 39°30' E 002°38'3 6.2
2017-Nov-02 22:29N 39°27' E 002°38'2 3.1
2017-Nov-02 22:00N 39°26' E 002°40'1 2.5
2017-Nov-02 21:29N 39°25' E 002°41'1 2.1
2017-Nov-02 20:59N 39°25' E 002°42'  

Dump ship's entire track history